Time;durP1;ratioP1;P1;durP2;ratioP2;P2;SDS_P1;SDS_P2;PMS_P1;PMS_P2;Temp;Humidity;BMP_temperature;BMP_pressure;BME280_temperature;BME280_humidity;BME280_pressure;Samples;Min_cycle;Max_cycle;Signal;HPM_P1;HPM_P2
2023/05/22 00:00:53;;;;;;;10.02;5.38;;;18.20;99.90;;;;;;4973494;28;20090;-68
2023/05/22 00:03:19;;;;;;;13.05;5.63;;;18.10;99.90;;;;;;4965773;28;20062;-68
2023/05/22 00:05:47;;;;;;;9.75;5.18;;;18.20;99.90;;;;;;4973622;28;20034;-68
2023/05/22 00:08:12;;;;;;;10.55;4.53;;;18.20;99.90;;;;;;4965572;28;20035;-68
2023/05/22 00:10:38;;;;;;;11.82;5.18;;;18.30;99.90;;;;;;4972006;28;20039;-68
2023/05/22 00:13:05;;;;;;;12.77;5.55;;;18.40;99.90;;;;;;4965367;28;20031;-68
2023/05/22 00:15:32;;;;;;;8.50;4.97;;;18.40;99.90;;;;;;4971021;28;20038;-68
2023/05/22 00:17:58;;;;;;;9.82;5.05;;;18.30;99.90;;;;;;4966447;28;20043;-68
2023/05/22 00:20:25;;;;;;;8.85;4.90;;;18.20;99.90;;;;;;4971313;28;20117;-68
2023/05/22 00:22:51;;;;;;;11.27;5.22;;;18.20;99.90;;;;;;4951181;29;20027;-68
2023/05/22 00:25:19;;;;;;;10.35;5.60;;;18.20;99.90;;;;;;4970180;28;20161;-68
2023/05/22 00:27:46;;;;;;;8.98;4.88;;;18.20;99.90;;;;;;4963774;28;20034;-68
2023/05/22 00:30:12;;;;;;;8.90;4.97;;;18.20;99.90;;;;;;4955397;28;20110;-68
2023/05/22 00:32:38;;;;;;;11.63;5.43;;;18.10;99.90;;;;;;4984171;28;20191;-68
2023/05/22 00:35:05;;;;;;;10.35;5.47;;;17.80;99.90;;;;;;4969429;28;20026;-68
2023/05/22 00:37:31;;;;;;;10.77;5.10;;;17.80;99.90;;;;;;4969968;28;20050;-68
2023/05/22 00:39:57;;;;;;;10.68;5.38;;;17.80;99.90;;;;;;4967627;28;20486;-68
2023/05/22 00:42:22;;;;;;;11.18;6.07;;;17.90;99.90;;;;;;4970895;28;20550;-68
2023/05/22 00:44:48;;;;;;;8.93;4.88;;;17.80;99.90;;;;;;4965883;28;20069;-67
2023/05/22 00:47:14;;;;;;;11.13;6.03;;;17.90;99.90;;;;;;4961134;28;20126;-68
2023/05/22 00:49:41;;;;;;;10.95;5.60;;;17.80;99.90;;;;;;4959679;28;20031;-68
2023/05/22 00:52:09;;;;;;;10.93;5.82;;;17.80;99.90;;;;;;4957218;28;20467;-68
2023/05/22 00:54:35;;;;;;;9.15;5.18;;;17.80;99.90;;;;;;4976373;28;20050;-68
2023/05/22 00:57:02;;;;;;;10.88;5.75;;;17.70;99.90;;;;;;4945830;29;20042;-68
2023/05/22 00:59:30;;;;;;;10.25;5.00;;;17.60;99.90;;;;;;4960968;28;20038;-68
2023/05/22 01:01:56;;;;;;;9.73;5.35;;;17.60;99.90;;;;;;4955124;28;20039;-68
2023/05/22 01:04:22;;;;;;;9.18;5.15;;;17.30;99.90;;;;;;4979135;28;20031;-67
2023/05/22 01:06:48;;;;;;;14.63;5.70;;;17.40;99.90;;;;;;4964549;28;20041;-67
2023/05/22 01:09:14;;;;;;;12.57;5.47;;;17.20;99.90;;;;;;4954205;28;20035;-67
2023/05/22 01:12:25;;;;;;;12.43;5.55;;;17.30;99.90;;;;;;4965749;28;20034;-68
2023/05/22 01:15:21;;;;;;;10.15;5.53;;;17.40;99.90;;;;;;4962346;28;20539;-68
2023/05/22 01:18:18;;;;;;;9.52;5.10;;;17.40;99.90;;;;;;4964079;28;20491;-68
2023/05/22 01:21:03;;;;;;;8.40;5.13;;;17.30;99.90;;;;;;4950093;28;20384;-69
2023/05/22 01:24:10;;;;;;;11.60;5.45;;;17.20;99.90;;;;;;4965880;28;20062;-68
2023/05/22 01:27:27;;;;;;;10.07;5.28;;;17.00;99.90;;;;;;4962701;28;20039;-68
2023/05/22 01:30:18;;;;;;;8.40;4.90;;;16.70;99.90;;;;;;4928627;28;20062;-68
2023/05/22 01:32:47;;;;;;;7.32;4.68;;;16.60;99.90;;;;;;4960771;28;20118;-68
2023/05/22 01:35:17;;;;;;;14.05;5.90;;;16.60;99.90;;;;;;4968897;28;20042;-68
2023/05/22 01:37:44;;;;;;;9.38;5.13;;;16.70;99.90;;;;;;4960829;28;20027;-68
2023/05/22 01:40:11;;;;;;;11.32;4.68;;;16.70;99.90;;;;;;4966108;28;20030;-68
2023/05/22 01:42:40;;;;;;;9.82;5.57;;;16.70;99.90;;;;;;4966981;28;20034;-68
2023/05/22 01:45:11;;;;;;;14.68;6.43;;;16.80;99.90;;;;;;4968088;28;20172;-67
2023/05/22 01:47:36;;;;;;;;;;;16.80;99.90;;;;;;4968604;28;20510;-68
2023/05/22 01:50:04;;;;;;;11.05;4.95;;;16.80;99.90;;;;;;4966146;28;19989;-69
2023/05/22 01:52:51;;;;;;;9.68;5.43;;;16.90;99.90;;;;;;4962015;28;20042;-68
2023/05/22 01:55:41;;;;;;;13.82;5.53;;;16.90;99.90;;;;;;4955582;28;20129;-68
2023/05/22 01:58:33;;;;;;;12.55;6.07;;;16.70;99.90;;;;;;4964434;28;20038;-68
2023/05/22 02:01:00;;;;;;;12.35;5.55;;;16.60;99.90;;;;;;4958712;28;20487;-68
2023/05/22 02:03:30;;;;;;;12.77;6.20;;;16.50;99.90;;;;;;4962500;28;20039;-68
2023/05/22 02:06:01;;;;;;;11.07;6.32;;;16.50;99.90;;;;;;4964802;28;20031;-68
2023/05/22 02:08:27;;;;;;;9.02;5.43;;;16.60;99.90;;;;;;4966830;28;20134;-68
2023/05/22 02:10:55;;;;;;;11.35;6.18;;;16.60;99.90;;;;;;4950682;28;20493;-68
2023/05/22 02:13:22;;;;;;;11.00;5.00;;;16.60;99.90;;;;;;4960186;28;20055;-68
2023/05/22 02:15:49;;;;;;;10.18;5.57;;;16.60;99.90;;;;;;4957963;28;20031;-68
2023/05/22 02:18:15;;;;;;;8.70;5.38;;;16.60;99.90;;;;;;4960616;28;20110;-68
2023/05/22 02:20:41;;;;;;;11.13;5.28;;;16.50;99.90;;;;;;4966466;28;20122;-68
2023/05/22 02:23:07;;;;;;;10.13;6.05;;;16.60;99.90;;;;;;4974963;28;20499;-68
2023/05/22 02:25:33;;;;;;;10.95;5.20;;;16.50;99.90;;;;;;4970771;28;20525;-68
2023/05/22 02:28:00;;;;;;;10.50;5.38;;;16.10;99.90;;;;;;4963048;28;20051;-68
2023/05/22 02:30:25;;;;;;;14.45;5.68;;;15.80;99.90;;;;;;4954026;28;20107;-68
2023/05/22 02:32:51;;;;;;;10.32;5.20;;;15.80;99.90;;;;;;4979183;23;20202;-70
2023/05/22 02:35:17;;;;;;;13.65;6.13;;;15.90;99.90;;;;;;4949911;29;20032;-71
2023/05/22 02:37:43;;;;;;;10.48;4.88;;;15.90;99.90;;;;;;4948083;28;20044;-70
2023/05/22 02:40:09;;;;;;;15.05;6.93;;;16.00;99.90;;;;;;4940748;29;20031;-70
2023/05/22 02:42:35;;;;;;;10.63;5.95;;;16.10;99.90;;;;;;4949351;29;20170;-70
2023/05/22 02:45:01;;;;;;;10.52;5.72;;;16.20;99.90;;;;;;4947865;29;20027;-71
2023/05/22 02:47:27;;;;;;;10.88;5.47;;;16.10;99.90;;;;;;4917643;29;20051;-71
2023/05/22 02:49:53;;;;;;;9.07;4.90;;;16.10;99.90;;;;;;4950641;29;20039;-71
2023/05/22 02:52:19;;;;;;;9.73;5.30;;;16.00;99.90;;;;;;4936897;28;20110;-71
2023/05/22 02:54:45;;;;;;;11.10;5.20;;;15.80;99.90;;;;;;4964246;28;20483;-71
2023/05/22 02:57:11;;;;;;;10.70;5.90;;;15.60;99.90;;;;;;4955440;28;20094;-71
2023/05/22 02:59:37;;;;;;;10.25;4.90;;;15.70;99.90;;;;;;4962933;28;20027;-71
2023/05/22 03:02:04;;;;;;;12.55;5.45;;;15.80;99.90;;;;;;4955884;28;20031;-71
2023/05/22 03:04:30;;;;;;;10.05;5.43;;;15.80;99.90;;;;;;4962282;28;21426;-71
2023/05/22 03:06:56;;;;;;;11.95;5.32;;;15.60;99.90;;;;;;4953816;28;20062;-71
2023/05/22 03:09:22;;;;;;;10.45;5.80;;;15.60;99.90;;;;;;4947408;28;20031;-71
2023/05/22 03:11:47;;;;;;;14.02;6.22;;;15.70;99.90;;;;;;4955608;29;20510;-71
2023/05/22 03:14:13;;;;;;;10.65;5.47;;;15.70;99.90;;;;;;4947371;28;20059;-71
2023/05/22 03:16:40;;;;;;;12.38;5.95;;;15.80;99.90;;;;;;4955488;28;20035;-71
2023/05/22 03:19:10;;;;;;;15.88;6.35;;;15.80;99.90;;;;;;4947552;28;20023;-71
2023/05/22 03:21:37;;;;;;;18.45;6.22;;;15.60;99.90;;;;;;4962382;28;20120;-71
2023/05/22 03:24:03;;;;;;;12.48;4.72;;;15.50;99.90;;;;;;4947612;28;20452;-71
2023/05/22 03:26:29;;;;;;;9.73;5.93;;;15.50;99.90;;;;;;4952875;28;20038;-71
2023/05/22 03:28:58;;;;;;;12.70;6.05;;;15.40;99.90;;;;;;4947105;28;20039;-71
2023/05/22 03:31:25;;;;;;;10.75;5.15;;;15.30;99.90;;;;;;4945447;28;20489;-71
2023/05/22 03:33:51;;;;;;;14.27;5.97;;;15.40;99.90;;;;;;4941525;29;20484;-71
2023/05/22 03:36:18;;;;;;;9.05;4.90;;;15.40;99.90;;;;;;4946408;28;20039;-71
2023/05/22 03:38:44;;;;;;;12.40;5.65;;;15.50;99.90;;;;;;4940594;29;20174;-71
2023/05/22 03:41:10;;;;;;;9.60;6.00;;;15.50;99.90;;;;;;4961771;28;20118;-71
2023/05/22 03:43:35;;;;;;;20.27;6.20;;;15.50;99.90;;;;;;4947137;28;20130;-71
2023/05/22 03:46:01;;;;;;;12.15;5.65;;;15.50;99.90;;;;;;4969944;28;20050;-71
2023/05/22 03:48:27;;;;;;;13.73;5.90;;;15.50;99.90;;;;;;4953100;28;20066;-71
2023/05/22 03:50:53;;;;;;;16.80;6.68;;;15.50;99.90;;;;;;4946547;28;20475;-71
2023/05/22 03:53:18;;;;;;;14.40;6.55;;;15.40;99.90;;;;;;4946656;28;20035;-71
2023/05/22 03:55:44;;;;;;;11.85;6.45;;;15.30;99.90;;;;;;4952265;28;20039;-71
2023/05/22 03:58:10;;;;;;;13.07;5.97;;;15.20;99.90;;;;;;4946743;28;20488;-71
2023/05/22 04:00:36;;;;;;;14.15;6.22;;;15.40;99.90;;;;;;4946736;29;20045;-71
2023/05/22 04:03:03;;;;;;;20.85;7.38;;;15.40;99.90;;;;;;4948161;28;20039;-70
2023/05/22 04:05:30;;;;;;;10.40;6.32;;;15.40;99.90;;;;;;4950958;28;20031;-71
2023/05/22 04:07:56;;;;;;;18.77;9.10;;;15.40;99.90;;;;;;4935613;29;20031;-71
2023/05/22 04:10:22;;;;;;;15.30;7.13;;;15.30;99.90;;;;;;4951033;29;20106;-71
2023/05/22 04:12:49;;;;;;;17.95;7.53;;;15.30;99.90;;;;;;4935228;29;20197;-71
2023/05/22 04:15:15;;;;;;;11.55;5.75;;;15.30;99.90;;;;;;4950228;28;20383;-70
2023/05/22 04:17:40;;;;;;;10.27;5.97;;;15.30;99.90;;;;;;4950403;28;20068;-71
2023/05/22 04:20:07;;;;;;;14.15;6.63;;;15.30;99.90;;;;;;4948965;29;20391;-71
2023/05/22 04:22:33;;;;;;;13.52;7.05;;;15.30;99.90;;;;;;4951916;28;20050;-71
2023/05/22 04:24:59;;;;;;;13.98;7.47;;;15.30;99.90;;;;;;4949460;29;20039;-71
2023/05/22 04:27:25;;;;;;;19.20;8.07;;;15.30;99.90;;;;;;4932081;28;20035;-71
2023/05/22 04:29:52;;;;;;;16.48;7.43;;;15.30;99.90;;;;;;4962885;28;20038;-71
2023/05/22 04:32:20;;;;;;;14.50;7.82;;;15.40;99.90;;;;;;4967947;28;20043;-71
2023/05/22 04:34:49;;;;;;;14.25;6.63;;;15.50;99.90;;;;;;4947457;29;20031;-71
2023/05/22 04:37:17;;;;;;;19.23;6.43;;;15.50;99.90;;;;;;4937154;28;20032;-71
2023/05/22 04:39:44;;;;;;;15.80;7.90;;;15.60;99.90;;;;;;4961225;28;20105;-71
2023/05/22 04:42:13;;;;;;;12.27;6.63;;;15.70;99.90;;;;;;4968598;28;20049;-70
2023/05/22 04:44:40;;;;;;;13.93;6.90;;;15.70;99.90;;;;;;4968337;28;20034;-70
2023/05/22 04:47:10;;;;;;;13.52;6.55;;;15.70;99.90;;;;;;4953857;28;20070;-72
2023/05/22 04:49:37;;;;;;;21.83;9.88;;;15.80;99.90;;;;;;4961224;28;20034;-70
2023/05/22 04:52:05;;;;;;;19.27;8.65;;;15.90;99.90;;;;;;4939200;28;20130;-71
2023/05/22 04:54:32;;;;;;;43.95;20.50;;;16.00;99.90;;;;;;4945216;29;20106;-71
2023/05/22 04:56:58;;;;;;;20.08;9.07;;;16.20;99.90;;;;;;4950931;28;20059;-71
2023/05/22 04:59:25;;;;;;;17.52;7.78;;;16.30;99.90;;;;;;4944996;28;20049;-71
2023/05/22 05:01:51;;;;;;;13.85;7.50;;;16.40;99.90;;;;;;4952329;28;20032;-72
2023/05/22 05:04:17;;;;;;;16.52;7.18;;;16.50;99.90;;;;;;4931387;28;20035;-70
2023/05/22 05:06:43;;;;;;;13.52;6.72;;;16.60;99.90;;;;;;4955537;28;20395;-73
2023/05/22 05:09:09;;;;;;;21.55;11.10;;;16.50;99.90;;;;;;4948391;28;20039;-73
2023/05/22 05:11:35;;;;;;;26.02;11.55;;;16.60;99.90;;;;;;4949268;28;20081;-74
2023/05/22 05:14:01;;;;;;;16.35;8.43;;;16.60;99.90;;;;;;4957842;28;20413;-73
2023/05/22 05:16:27;;;;;;;68.25;27.33;;;16.60;99.90;;;;;;4952497;28;20106;-74
2023/05/22 05:18:54;;;;;;;40.28;17.30;;;16.70;99.90;;;;;;4940810;28;20039;-73
2023/05/22 05:21:20;;;;;;;17.67;9.02;;;16.80;99.90;;;;;;4909862;28;20115;-73
2023/05/22 05:23:46;;;;;;;16.20;6.90;;;16.90;99.90;;;;;;4938635;29;20044;-73
2023/05/22 05:26:13;;;;;;;17.17;7.10;;;16.80;99.90;;;;;;4967404;28;20047;-72
2023/05/22 05:28:39;;;;;;;16.77;7.43;;;17.00;99.90;;;;;;4944522;28;20447;-73
2023/05/22 05:31:06;;;;;;;17.35;6.97;;;17.00;99.90;;;;;;4959654;28;20031;-73
2023/05/22 05:33:32;;;;;;;11.88;6.30;;;17.00;99.90;;;;;;4945026;28;20034;-73
2023/05/22 05:35:58;;;;;;;10.80;7.57;;;17.10;99.90;;;;;;4949938;28;20027;-74
2023/05/22 05:38:24;;;;;;;11.50;6.82;;;17.30;99.90;;;;;;4959874;28;20040;-74
2023/05/22 05:40:50;;;;;;;14.73;6.82;;;17.40;99.90;;;;;;4947071;28;20125;-73
2023/05/22 05:43:16;;;;;;;13.15;6.47;;;17.40;99.90;;;;;;4934828;29;20038;-71
2023/05/22 05:45:42;;;;;;;16.92;7.75;;;17.50;99.90;;;;;;4947934;28;20391;-71
2023/05/22 05:48:08;;;;;;;15.05;7.13;;;17.30;99.90;;;;;;4939740;29;20035;-72
2023/05/22 05:50:34;;;;;;;16.35;7.18;;;17.30;99.90;;;;;;4950868;29;20037;-72
2023/05/22 05:53:00;;;;;;;12.93;6.78;;;17.30;99.90;;;;;;4945066;28;20114;-68
2023/05/22 05:55:26;;;;;;;16.30;6.47;;;17.40;99.90;;;;;;4948996;29;20058;-72
2023/05/22 05:57:53;;;;;;;16.08;7.90;;;17.50;99.90;;;;;;4945063;29;20065;-71
2023/05/22 06:00:19;;;;;;;13.55;6.90;;;17.60;99.90;;;;;;4964448;28;20050;-69
2023/05/22 06:02:45;;;;;;;13.95;6.95;;;17.70;99.90;;;;;;4942586;28;20046;-72
2023/05/22 06:05:12;;;;;;;16.42;7.25;;;17.80;99.90;;;;;;4949466;29;20043;-74
2023/05/22 06:07:38;;;;;;;14.45;6.97;;;17.90;99.90;;;;;;4940949;28;20480;-72
2023/05/22 06:10:09;;;;;;;13.45;7.15;;;18.10;99.90;;;;;;4939562;29;20098;-71
2023/05/22 06:12:36;;;;;;;12.05;6.47;;;18.40;99.90;;;;;;4954245;28;20037;-61
2023/05/22 06:15:08;;;;;;;17.48;7.20;;;18.50;99.90;;;;;;4948499;28;20038;-61
2023/05/22 06:17:35;;;;;;;22.83;7.47;;;18.70;99.90;;;;;;4963272;28;20031;-60
2023/05/22 06:20:04;;;;;;;12.63;6.93;;;18.40;99.90;;;;;;4937720;29;20113;-60
2023/05/22 06:22:30;;;;;;;14.95;7.10;;;18.40;99.90;;;;;;4948436;29;20066;-61
2023/05/22 06:24:55;;;;;;;14.05;7.25;;;18.40;99.90;;;;;;4932145;29;20063;-62
2023/05/22 06:27:22;;;;;;;15.50;6.93;;;18.60;99.90;;;;;;4948872;29;20027;-71
2023/05/22 06:29:49;;;;;;;19.77;7.65;;;18.70;99.90;;;;;;4934726;29;20035;-71
2023/05/22 06:32:16;;;;;;;14.88;7.22;;;18.90;99.90;;;;;;4948206;28;20059;-71
2023/05/22 06:34:44;;;;;;;13.50;6.20;;;18.90;99.90;;;;;;4952379;28;20019;-73
2023/05/22 06:37:10;;;;;;;13.98;6.85;;;19.00;99.90;;;;;;4932332;29;20046;-71
2023/05/22 06:39:37;;;;;;;14.65;6.40;;;19.20;99.90;;;;;;4932623;29;20157;-72
2023/05/22 06:42:03;;;;;;;13.05;7.28;;;19.50;99.90;;;;;;4948093;29;20049;-72
2023/05/22 06:44:28;;;;;;;14.10;6.97;;;19.60;99.90;;;;;;4933669;28;20122;-72
2023/05/22 06:46:54;;;;;;;12.27;6.88;;;19.70;99.90;;;;;;4946831;29;20098;-72
2023/05/22 06:49:20;;;;;;;15.27;7.82;;;19.90;99.90;;;;;;4934230;28;20083;-72
2023/05/22 06:51:46;;;;;;;14.15;7.15;;;20.00;99.90;;;;;;4944192;29;20039;-72
2023/05/22 06:54:12;;;;;;;13.65;7.40;;;20.00;99.90;;;;;;4951406;28;20024;-74
2023/05/22 06:56:39;;;;;;;11.80;6.68;;;20.10;99.90;;;;;;4948127;28;20035;-74
2023/05/22 06:59:05;;;;;;;14.60;6.95;;;20.00;99.90;;;;;;4966340;28;20503;-75
2023/05/22 07:01:32;;;;;;;13.57;6.75;;;20.00;99.90;;;;;;4948739;28;20050;-74
2023/05/22 07:04:03;;;;;;;14.35;6.63;;;20.30;99.90;;;;;;4951276;28;20118;-76
2023/05/22 07:06:37;;;;;;;11.30;5.70;;;20.40;99.90;;;;;;4934593;29;20407;-74
2023/05/22 07:09:04;;;;;;;12.85;7.25;;;20.40;99.90;;;;;;4935105;28;20377;-74
2023/05/22 07:11:31;;;;;;;12.90;6.22;;;20.60;99.90;;;;;;4943678;29;20051;-74
2023/05/22 07:13:56;;;;;;;14.65;5.97;;;20.80;99.90;;;;;;4937348;28;20512;-74
2023/05/22 07:16:22;;;;;;;12.77;5.80;;;20.70;99.90;;;;;;4940309;29;20059;-74
2023/05/22 07:18:48;;;;;;;11.75;6.45;;;20.80;99.90;;;;;;4966182;28;20042;-74
2023/05/22 07:21:14;;;;;;;9.88;5.65;;;20.70;99.90;;;;;;4949124;28;20035;-75
2023/05/22 07:23:40;;;;;;;12.25;6.38;;;20.90;99.90;;;;;;4939824;28;20099;-76
2023/05/22 07:26:06;;;;;;;12.35;5.72;;;20.90;99.90;;;;;;4939686;29;20035;-75
2023/05/22 07:28:32;;;;;;;10.60;5.80;;;21.00;99.90;;;;;;4966211;28;20074;-76
2023/05/22 07:30:58;;;;;;;13.15;6.82;;;20.90;99.90;;;;;;4963818;28;20051;-76
2023/05/22 07:33:24;;;;;;;12.40;6.22;;;21.00;99.90;;;;;;4965965;28;20031;-76
2023/05/22 07:35:50;;;;;;;12.18;6.22;;;21.00;99.90;;;;;;4949175;28;20031;-76
2023/05/22 07:38:17;;;;;;;13.52;6.25;;;21.10;99.90;;;;;;4967367;28;20031;-76
2023/05/22 07:40:42;;;;;;;11.10;5.57;;;21.30;99.90;;;;;;4952459;28;20299;-75
2023/05/22 07:43:09;;;;;;;11.60;5.60;;;21.50;99.90;;;;;;4947197;28;20036;-76
2023/05/22 07:45:34;;;;;;;8.88;5.63;;;21.30;99.90;;;;;;4937988;29;20093;-76
2023/05/22 07:48:02;;;;;;;10.02;5.78;;;21.40;99.90;;;;;;4948175;28;20119;-76
2023/05/22 07:50:29;;;;;;;9.05;4.55;;;21.40;99.90;;;;;;4937527;29;20043;-75
2023/05/22 07:52:55;;;;;;;10.30;4.65;;;21.50;99.90;;;;;;4953218;29;20407;-74
2023/05/22 07:55:21;;;;;;;13.40;5.70;;;21.70;99.90;;;;;;4952555;28;20023;-74
2023/05/22 07:57:47;;;;;;;12.45;5.78;;;21.60;99.90;;;;;;4969357;28;20039;-74
2023/05/22 08:00:13;;;;;;;9.77;5.68;;;21.50;99.90;;;;;;4966478;28;20045;-74
2023/05/22 08:02:40;;;;;;;10.88;4.97;;;21.70;99.90;;;;;;4968909;28;20180;-74
2023/05/22 08:05:07;;;;;;;11.98;5.60;;;21.70;99.90;;;;;;4951685;29;20117;-75
2023/05/22 08:07:33;;;;;;;8.95;4.97;;;21.90;99.90;;;;;;4950162;28;20079;-75
2023/05/22 08:10:03;;;;;;;8.95;5.35;;;21.70;99.90;;;;;;4933925;29;20062;-76
2023/05/22 08:12:29;;;;;;;8.95;4.97;;;21.60;99.90;;;;;;4951073;28;20031;-74
2023/05/22 08:14:55;;;;;;;13.32;4.70;;;21.90;99.90;;;;;;4935129;29;20109;-75
2023/05/22 08:17:20;;;;;;;7.40;4.05;;;21.90;99.90;;;;;;4951004;29;20458;-75
2023/05/22 08:19:46;;;;;;;9.80;5.07;;;22.20;99.90;;;;;;4933665;29;20043;-75
2023/05/22 08:22:12;;;;;;;7.40;4.25;;;22.20;99.90;;;;;;4950667;29;20035;-75
2023/05/22 08:24:37;;;;;;;15.10;4.55;;;22.60;99.90;;;;;;4934529;29;20027;-75
2023/05/22 08:27:04;;;;;;;9.50;4.40;;;22.80;99.90;;;;;;4949950;29;20047;-75
2023/05/22 08:29:30;;;;;;;6.70;4.15;;;23.20;99.90;;;;;;4953477;28;20488;-74
2023/05/22 08:31:56;;;;;;;7.72;4.50;;;23.30;99.90;;;;;;4951025;28;20058;-75
2023/05/22 08:34:23;;;;;;;7.60;4.22;;;23.00;99.90;;;;;;4954625;23;20055;-74
2023/05/22 08:36:49;;;;;;;8.93;4.78;;;23.00;99.90;;;;;;4940549;28;20070;-75
2023/05/22 08:39:16;;;;;;;8.25;4.40;;;23.10;99.90;;;;;;4938373;29;20035;-74
2023/05/22 08:41:46;;;;;;;10.23;5.72;;;23.20;99.90;;;;;;4958420;28;20039;-74
2023/05/22 08:44:12;;;;;;;7.40;4.20;;;23.30;99.90;;;;;;4952512;28;20082;-74
2023/05/22 08:46:44;;;;;;;9.52;4.57;;;23.20;99.90;;;;;;4953948;28;20307;-73
2023/05/22 08:49:10;;;;;;;7.82;4.32;;;23.10;99.90;;;;;;4952314;28;20050;-74
2023/05/22 08:51:43;;;;;;;9.15;5.07;;;23.20;99.90;;;;;;4951344;28;20078;-73
2023/05/22 08:54:09;;;;;;;8.80;4.78;;;23.20;99.90;;;;;;4935307;29;20028;-73
2023/05/22 08:56:35;;;;;;;12.23;4.28;;;23.40;99.90;;;;;;4944836;29;20031;-73
2023/05/22 08:59:02;;;;;;;9.32;4.82;;;23.40;99.90;;;;;;4953310;28;20639;-73
2023/05/22 09:01:30;;;;;;;7.07;4.43;;;24.00;99.90;;;;;;4949609;29;20070;-73
2023/05/22 09:04:01;;;;;;;7.93;4.10;;;23.60;99.90;;;;;;4953310;28;20050;-72
2023/05/22 09:06:30;;;;;;;10.13;4.75;;;23.90;99.90;;;;;;4948071;28;20035;-73
2023/05/22 09:09:00;;;;;;;9.55;4.72;;;23.90;99.90;;;;;;4951521;28;20039;-72
2023/05/22 09:11:26;;;;;;;9.70;4.63;;;24.40;99.30;;;;;;4934837;29;20042;-74
2023/05/22 09:14:05;;;;;;;14.20;5.50;;;24.40;98.60;;;;;;4952479;29;20106;-73
2023/05/22 09:16:30;;;;;;;11.40;5.53;;;24.20;99.60;;;;;;4944457;29;20043;-72
2023/05/22 09:18:56;;;;;;;13.65;6.00;;;24.40;99.60;;;;;;4952650;29;20111;-74
2023/05/22 09:21:28;;;;;;;10.63;4.82;;;24.30;99.10;;;;;;4947539;28;20050;-74
2023/05/22 09:23:58;;;;;;;7.95;5.15;;;24.10;99.70;;;;;;4939379;28;20130;-74
2023/05/22 09:26:28;;;;;;;10.20;4.90;;;24.50;98.80;;;;;;4951269;29;20039;-73
2023/05/22 09:28:53;;;;;;;9.02;4.57;;;24.20;99.80;;;;;;4977750;28;20470;-75
2023/05/22 09:31:19;;;;;;;8.95;4.70;;;24.30;99.90;;;;;;4950545;29;20023;-74
2023/05/22 09:33:45;;;;;;;9.30;4.70;;;24.30;99.80;;;;;;4947235;29;20161;-74
2023/05/22 09:36:11;;;;;;;13.43;5.72;;;24.50;99.30;;;;;;4951427;28;20159;-74
2023/05/22 09:38:37;;;;;;;11.55;5.43;;;24.40;99.30;;;;;;4949754;28;20031;-74
2023/05/22 09:41:04;;;;;;;12.93;5.70;;;24.50;99.50;;;;;;4971614;28;20761;-73
2023/05/22 09:43:32;;;;;;;14.10;6.25;;;24.30;99.90;;;;;;4980546;28;20483;-74
2023/05/22 09:46:05;;;;;;;11.90;6.03;;;24.20;99.40;;;;;;4972176;28;20039;-73
2023/05/22 09:48:37;;;;;;;11.32;5.28;;;24.90;99.30;;;;;;4963459;28;20039;-72
2023/05/22 09:51:04;;;;;;;9.68;5.82;;;24.70;98.90;;;;;;4948000;29;20032;-72
2023/05/22 09:53:32;;;;;;;8.77;4.90;;;25.20;98.50;;;;;;4949895;28;20046;-73
2023/05/22 09:56:00;;;;;;;9.43;5.00;;;24.90;98.90;;;;;;4975503;28;20031;-73
2023/05/22 09:58:29;;;;;;;14.10;5.13;;;24.70;99.70;;;;;;4950347;29;20162;-74
2023/05/22 10:00:56;;;;;;;9.15;5.25;;;24.60;99.20;;;;;;4946716;28;20031;-76
2023/05/22 10:03:25;;;;;;;14.85;5.28;;;25.10;99.40;;;;;;4951170;28;20035;-75
2023/05/22 10:05:54;;;;;;;11.68;5.18;;;25.10;98.80;;;;;;4946383;29;20043;-75
2023/05/22 10:08:27;;;;;;;9.52;5.15;;;25.40;98.40;;;;;;4951274;28;20027;-73
2023/05/22 10:10:54;;;;;;;9.55;5.03;;;24.90;98.80;;;;;;4955352;28;20031;-73
2023/05/22 10:13:21;;;;;;;10.00;5.57;;;25.30;98.60;;;;;;4949212;29;20479;-75
2023/05/22 10:15:48;;;;;;;9.00;4.72;;;25.00;99.00;;;;;;4945450;29;20435;-74
2023/05/22 10:18:17;;;;;;;12.95;5.55;;;25.50;98.40;;;;;;4950088;29;20046;-76
2023/05/22 10:20:45;;;;;;;9.10;5.40;;;25.00;98.80;;;;;;4954819;28;20409;-75
2023/05/22 10:23:12;;;;;;;11.02;5.53;;;25.20;98.20;;;;;;4962954;28;20122;-75
2023/05/22 10:25:39;;;;;;;8.48;5.68;;;25.30;98.90;;;;;;4966332;28;20064;-75
2023/05/22 10:28:06;;;;;;;11.68;5.72;;;25.30;99.10;;;;;;4950461;28;20036;-71
2023/05/22 10:31:09;;;;;;;10.52;5.38;;;25.40;98.40;;;;;;4950112;28;20035;-72
2023/05/22 10:33:50;;;;;;;10.68;5.82;;;25.90;97.40;;;;;;4949316;28;20035;-75
2023/05/22 10:36:31;;;;;;;11.75;5.57;;;25.60;98.30;;;;;;4950796;29;20550;-73
2023/05/22 10:39:29;;;;;;;11.25;5.35;;;25.90;97.90;;;;;;4944386;29;20047;-75
2023/05/22 10:41:55;;;;;;;9.57;5.65;;;25.80;98.20;;;;;;4963563;28;20146;-75
2023/05/22 10:44:21;;;;;;;12.73;5.95;;;26.40;97.10;;;;;;4943807;28;20042;-75
2023/05/22 10:46:51;;;;;;;10.93;6.07;;;26.90;96.20;;;;;;4951838;28;20409;-76
2023/05/22 10:49:24;;;;;;;16.02;6.72;;;26.40;95.60;;;;;;4943724;28;20028;-74
2023/05/22 10:51:57;;;;;;;9.35;5.78;;;26.10;96.60;;;;;;4951573;28;20039;-73
2023/05/22 10:54:41;;;;;;;14.60;6.75;;;26.40;96.90;;;;;;4951650;28;20039;-75
2023/05/22 10:57:17;;;;;;;16.13;7.28;;;26.80;95.30;;;;;;4951882;28;20419;-75
2023/05/22 10:59:46;;;;;;;11.50;5.97;;;26.90;96.00;;;;;;4973711;28;20042;-74
2023/05/22 11:02:29;;;;;;;11.93;6.60;;;27.30;95.50;;;;;;4951997;28;20063;-75
2023/05/22 11:05:33;;;;;;;11.85;5.60;;;27.60;93.70;;;;;;4943562;28;20436;-73
2023/05/22 11:08:25;;;;;;;14.20;6.35;;;27.80;93.60;;;;;;4887326;29;20040;-71
2023/05/22 11:10:57;;;;;;;10.38;5.53;;;27.60;92.50;;;;;;4932697;29;20043;-72
2023/05/22 11:13:26;;;;;;;10.95;6.10;;;27.20;93.20;;;;;;4953475;28;20038;-75
2023/05/22 11:15:56;;;;;;;9.88;5.40;;;27.20;93.90;;;;;;4941502;28;20073;-73
2023/05/22 11:18:23;;;;;;;12.80;6.32;;;27.50;94.00;;;;;;4955250;28;20499;-73
2023/05/22 11:20:49;;;;;;;12.02;5.38;;;28.00;93.00;;;;;;4951565;28;20043;-72
2023/05/22 11:23:22;;;;;;;13.05;6.88;;;27.90;92.80;;;;;;4929212;28;20043;-71
2023/05/22 11:25:48;;;;;;;11.80;5.63;;;28.50;91.30;;;;;;4937394;29;20480;-71
2023/05/22 11:28:14;;;;;;;11.27;6.18;;;27.40;91.20;;;;;;4954894;29;20058;-71
2023/05/22 11:30:41;;;;;;;10.27;5.53;;;27.20;91.60;;;;;;4951647;29;20023;-72
2023/05/22 11:33:07;;;;;;;14.13;5.97;;;27.60;91.60;;;;;;4953511;29;20491;-72
2023/05/22 11:35:34;;;;;;;11.98;5.90;;;27.50;91.80;;;;;;4953581;28;20093;-72
2023/05/22 11:38:05;;;;;;;8.57;5.07;;;27.90;91.70;;;;;;4950297;29;20369;-71
2023/05/22 11:40:30;;;;;;;9.80;5.15;;;27.40;91.30;;;;;;4953507;28;20031;-70
2023/05/22 11:42:56;;;;;;;13.05;5.45;;;27.30;92.90;;;;;;4949940;29;20134;-72
2023/05/22 11:45:22;;;;;;;12.60;5.45;;;27.90;91.80;;;;;;4954745;29;20042;-71
2023/05/22 11:47:49;;;;;;;9.45;4.85;;;28.60;90.30;;;;;;4948731;29;20549;-70
2023/05/22 11:50:15;;;;;;;8.93;5.38;;;28.00;90.80;;;;;;4954644;28;20030;-70
2023/05/22 11:52:42;;;;;;;11.52;5.47;;;28.20;91.10;;;;;;4933641;29;20044;-72
2023/05/22 11:55:09;;;;;;;11.07;5.47;;;28.40;90.40;;;;;;4982190;28;20031;-70
2023/05/22 11:57:35;;;;;;;11.80;6.28;;;29.30;89.10;;;;;;4953630;28;20391;-71
2023/05/22 12:00:05;;;;;;;9.13;5.18;;;29.60;88.00;;;;;;4953068;29;20035;-71
2023/05/22 12:02:31;;;;;;;10.82;4.85;;;29.80;86.10;;;;;;4947421;29;20043;-72
2023/05/22 12:04:57;;;;;;;7.53;4.57;;;29.90;83.40;;;;;;4954412;28;20483;-72
2023/05/22 12:07:25;;;;;;;9.52;4.65;;;30.30;82.30;;;;;;4947259;29;20039;-72
2023/05/22 12:09:51;;;;;;;7.90;4.30;;;29.80;81.60;;;;;;4952653;28;20035;-71
2023/05/22 12:12:19;;;;;;;8.40;4.18;;;30.20;81.50;;;;;;4948601;28;20035;-70
2023/05/22 12:14:45;;;;;;;10.50;4.88;;;29.70;81.10;;;;;;4954300;28;20458;-71
2023/05/22 12:17:16;;;;;;;9.93;4.40;;;29.70;80.70;;;;;;4947020;29;20029;-71
2023/05/22 12:19:43;;;;;;;7.60;4.35;;;29.90;81.10;;;;;;4952659;28;20388;-71
2023/05/22 12:22:10;;;;;;;6.50;3.47;;;30.40;78.90;;;;;;4947987;28;20035;-71
2023/05/22 12:24:47;;;;;;;14.52;4.35;;;30.80;76.00;;;;;;4951845;28;20479;-71
2023/05/22 12:27:13;;;;;;;11.60;3.97;;;29.70;78.00;;;;;;4953230;28;20487;-71
2023/05/22 12:29:41;;;;;;;7.78;4.18;;;30.10;80.10;;;;;;4952258;28;20483;-71
2023/05/22 12:32:10;;;;;;;7.65;4.03;;;29.90;77.10;;;;;;4931145;29;20032;-72
2023/05/22 12:34:44;;;;;;;10.27;4.72;;;30.70;76.10;;;;;;4960428;28;20038;-71
2023/05/22 12:37:21;;;;;;;8.60;4.65;;;30.90;75.40;;;;;;4948087;28;20031;-75
2023/05/22 12:39:58;;;;;;;9.10;4.53;;;30.90;75.10;;;;;;4977742;28;20043;-75
2023/05/22 12:42:25;;;;;;;10.35;4.95;;;31.10;76.30;;;;;;4961953;28;20671;-75
2023/05/22 12:44:56;;;;;;;10.23;4.43;;;31.30;74.70;;;;;;4953913;28;20027;-75
2023/05/22 12:47:23;;;;;;;10.48;5.55;;;31.40;75.00;;;;;;4945763;29;20468;-75